sim
Sign-in with your pilot id or email,
or register
Callsign
Passwort

Schedule Details

Flight Number: EWG7658
Departure: Hamburg Airport (EDDH) at 10:05
Arrival: Thessaloniki International Airport (LGTS) at 12:50
Route: Eurowings Passenger Schedule. Enter filed route here before submitting Pirep.

Weather Information
Getting current METAR information for EDDH 230620Z VRB01KT CAVOK 18/14 Q1026 NOSIG
Getting current METAR information for LGTS 230620Z VRB02KT CAVOK 28/18 Q1019 NOSIG

Schedule Frequency

Route Map